Al Jubail, Saudi Arabia
Current Conditions -  °F | °C
As of 11:00 PM on Tuesday 25 Nov 2014 (Local Time) from OEDF Reporting Station
Clear Clear  
Wind Chill: 72°   Ceiling: Unl
Heat Index: 72°   Visibility: 6mi
Dew Point: 64°   Wind: 12mph
Humidity: 78%   Direction: 290°WNW
Pressure: 29.91"   Gusts: NA
Location:  27.01754°N, 49.65477°E
Report Text: OEDF 252000Z 29010KT CAVOK 22/18 Q1013 NOSIG
Loading
Personal Weather Stations






























Interactive Weather Map New forecast layout! Learn more

10-Day Weather Forecast

Advertisements
Track Severe Weather on mobile